createdAt,value
2018-11-11T00:00:22.697Z,13.29
2018-11-11T00:01:03.063Z,13.22
2018-11-11T00:01:43.543Z,13.31
2018-11-11T00:02:23.925Z,13.21
2018-11-11T00:03:04.330Z,13.22
2018-11-11T00:03:44.819Z,13.32
2018-11-11T00:04:25.260Z,13.35
2018-11-11T00:05:05.992Z,13.22
2018-11-11T00:05:46.403Z,13.24
2018-11-11T00:06:26.699Z,13.28
2018-11-11T00:07:07.151Z,13.22
2018-11-11T00:07:47.608Z,13.21
2018-11-11T00:08:28.008Z,13.24
2018-11-11T00:09:08.793Z,13.22
2018-11-11T00:09:49.092Z,13.24
2018-11-11T00:10:29.628Z,13.21
2018-11-11T00:11:10.091Z,13.27
2018-11-11T00:11:50.475Z,13.17
2018-11-11T00:12:30.894Z,13.28
2018-11-11T00:13:11.377Z,13.27
2018-11-11T00:13:51.760Z,13.21
2018-11-11T00:14:32.166Z,13.29
2018-11-11T00:15:12.591Z,13.24
2018-11-11T00:15:53.006Z,13.21
2018-11-11T00:16:33.571Z,13.22
2018-11-11T00:17:13.886Z,13.27
2018-11-11T00:17:54.529Z,13.27
2018-11-11T00:18:34.991Z,13.21
2018-11-11T00:19:15.352Z,13.27
2018-11-11T00:19:55.739Z,13.27
2018-11-11T00:20:36.230Z,13.25
2018-11-11T00:21:16.635Z,13.29
2018-11-11T00:21:57.058Z,13.41
2018-11-11T00:22:37.585Z,13.29
2018-11-11T00:23:18.035Z,13.25
2018-11-11T00:23:58.481Z,13.24
2018-11-11T00:24:38.848Z,13.38
2018-11-11T00:25:19.265Z,13.29
2018-11-11T00:25:59.768Z,13.29
2018-11-11T00:26:40.108Z,13.28
2018-11-11T00:27:20.531Z,13.35
2018-11-11T00:28:00.889Z,13.36
2018-11-11T00:28:41.407Z,13.35
2018-11-11T00:29:21.714Z,13.32
2018-11-11T00:30:02.109Z,13.35
2018-11-11T00:30:42.490Z,13.32
2018-11-11T00:32:30.172Z,13.31
2018-11-11T00:33:10.428Z,13.38
2018-11-11T00:33:50.809Z,13.39
2018-11-11T00:34:31.548Z,13.35
2018-11-11T00:35:11.984Z,13.38
2018-11-11T00:35:52.460Z,13.36
2018-11-11T00:36:32.850Z,13.38
2018-11-11T00:37:13.460Z,13.41
2018-11-11T00:37:53.702Z,13.35
2018-11-11T00:38:34.081Z,13.29
2018-11-11T00:39:14.482Z,13.35
2018-11-11T00:39:54.939Z,13.36
2018-11-11T00:40:35.354Z,13.41
2018-11-11T00:41:15.741Z,13.36
2018-11-11T00:41:56.182Z,13.43
2018-11-11T00:42:38.374Z,13.48
2018-11-11T00:43:18.762Z,13.36
2018-11-11T00:43:59.124Z,13.36
2018-11-11T00:44:39.534Z,13.31
2018-11-11T00:45:20.047Z,13.32
2018-11-11T00:46:00.550Z,13.35
2018-11-11T00:46:40.895Z,13.41
2018-11-11T00:47:21.459Z,13.27
2018-11-11T00:48:01.888Z,13.29
2018-11-11T00:48:42.356Z,13.27
2018-11-11T00:49:22.824Z,13.21
2018-11-11T00:50:03.558Z,13.21
2018-11-11T00:50:44.046Z,13.27
2018-11-11T00:51:24.577Z,13.29
2018-11-11T00:52:05.247Z,13.25
2018-11-11T00:52:45.694Z,13.22
2018-11-11T00:53:26.073Z,13.24
2018-11-11T00:55:03.335Z,13.24
2018-11-11T00:55:47.473Z,13.25
2018-11-11T00:56:28.132Z,13.21
2018-11-11T00:57:08.229Z,13.24
2018-11-11T00:57:48.787Z,13.21
2018-11-11T00:58:29.190Z,13.24
2018-11-11T00:59:09.627Z,13.25
2018-11-11T00:59:50.089Z,13.25
2018-11-11T01:00:30.597Z,13.21
2018-11-11T01:01:11.518Z,13.32
2018-11-11T01:01:52.015Z,13.24
2018-11-11T01:02:32.513Z,13.25
2018-11-11T01:03:13.006Z,13.25
2018-11-11T01:03:53.368Z,13.17
2018-11-11T01:04:34.196Z,13.21
2018-11-11T01:05:14.649Z,13.24
2018-11-11T01:05:55.228Z,13.22
2018-11-11T01:06:35.588Z,13.25
2018-11-11T01:07:16.133Z,13.28
2018-11-11T01:07:56.716Z,13.24
2018-11-11T01:08:37.045Z,13.22
2018-11-11T01:09:17.599Z,13.21
2018-11-11T01:11:16.358Z,13.27
2018-11-11T01:11:58.002Z,13.21
2018-11-11T01:12:38.447Z,13.25
2018-11-11T01:13:18.995Z,13.25
2018-11-11T01:13:59.646Z,13.22
2018-11-11T01:14:40.090Z,13.25
2018-11-11T01:15:20.443Z,13.25
2018-11-11T01:16:00.845Z,13.21
2018-11-11T01:16:41.326Z,13.29
2018-11-11T01:17:21.622Z,13.24
2018-11-11T01:18:02.056Z,13.25
2018-11-11T01:18:42.442Z,13.25
2018-11-11T01:19:22.876Z,13.27
2018-11-11T01:20:03.306Z,13.21
2018-11-11T01:20:43.663Z,13.25
2018-11-11T01:21:24.047Z,13.21
2018-11-11T01:22:04.416Z,13.24
2018-11-11T01:22:44.841Z,13.25
2018-11-11T01:23:25.313Z,13.27
2018-11-11T01:24:05.758Z,13.27
2018-11-11T01:24:46.239Z,13.24
2018-11-11T01:25:26.746Z,13.24
2018-11-11T01:26:07.175Z,13.25
2018-11-11T01:26:47.634Z,13.22
2018-11-11T01:27:28.150Z,13.19
2018-11-11T01:28:08.521Z,13.19
2018-11-11T01:28:49.056Z,13.24
2018-11-11T01:29:29.374Z,13.14
2018-11-11T01:30:09.850Z,13.21
2018-11-11T01:30:50.288Z,13.19
2018-11-11T01:31:30.714Z,13.27
2018-11-11T01:32:11.209Z,13.21
2018-11-11T01:32:51.651Z,13.19
2018-11-11T01:33:32.030Z,13.24
2018-11-11T01:34:12.759Z,13.29
2018-11-11T01:34:53.045Z,13.24
2018-11-11T01:35:33.451Z,13.21
2018-11-11T01:36:13.910Z,13.24
2018-11-11T01:36:54.367Z,13.25
2018-11-11T01:37:34.759Z,13.21
2018-11-11T01:38:15.217Z,13.31
2018-11-11T01:38:55.547Z,13.28
2018-11-11T01:39:35.942Z,13.29
2018-11-11T01:40:16.327Z,13.17
2018-11-11T01:40:56.778Z,13.21
2018-11-11T01:41:37.270Z,13.22
2018-11-11T01:42:17.707Z,13.22
2018-11-11T01:42:58.066Z,13.24
2018-11-11T01:43:38.602Z,13.24
2018-11-11T01:44:19.200Z,13.28
2018-11-11T01:44:59.742Z,13.22
2018-11-11T01:45:40.188Z,13.24
2018-11-11T01:46:20.935Z,13.24
2018-11-11T01:47:01.438Z,13.25
2018-11-11T01:47:41.904Z,13.19
2018-11-11T01:48:22.221Z,13.21
2018-11-11T01:49:02.854Z,13.21
2018-11-11T01:49:43.217Z,13.16
2018-11-11T01:50:23.660Z,13.24
2018-11-11T01:51:04.006Z,13.29
2018-11-11T01:51:44.460Z,13.21
2018-11-11T01:52:24.807Z,13.22
2018-11-11T01:53:05.281Z,13.24
2018-11-11T01:53:45.636Z,13.22
2018-11-11T01:54:26.118Z,13.21
2018-11-11T01:55:06.562Z,13.25
2018-11-11T01:55:46.910Z,13.25
2018-11-11T01:56:27.378Z,13.21
2018-11-11T01:57:07.765Z,13.27
2018-11-11T01:57:48.121Z,13.22
2018-11-11T01:58:28.530Z,13.22
2018-11-11T01:59:09.021Z,13.21
2018-11-11T01:59:49.426Z,13.22
2018-11-11T02:00:29.853Z,13.22
2018-11-11T02:01:10.267Z,13.27
2018-11-11T02:01:50.632Z,13.28
2018-11-11T02:02:31.049Z,13.28
2018-11-11T02:03:11.497Z,13.21
2018-11-11T02:03:52.005Z,13.25
2018-11-11T02:04:32.728Z,13.25
2018-11-11T02:05:13.055Z,13.17
2018-11-11T02:05:53.468Z,13.28
2018-11-11T02:06:33.890Z,13.16
2018-11-11T02:07:14.560Z,13.16
2018-11-11T02:07:55.001Z,13.22
2018-11-11T02:08:35.312Z,13.17
2018-11-11T02:09:15.709Z,13.21
2018-11-11T02:09:56.310Z,13.22
2018-11-11T02:10:36.548Z,13.19
2018-11-11T02:11:17.032Z,13.25
2018-11-11T02:11:57.505Z,13.27
2018-11-11T02:12:37.867Z,13.27
2018-11-11T02:13:18.254Z,13.22
2018-11-11T02:13:58.713Z,13.21
2018-11-11T02:14:39.044Z,13.29
2018-11-11T02:15:19.472Z,13.25
2018-11-11T02:16:00.006Z,13.25
2018-11-11T02:16:40.410Z,13.24
2018-11-11T02:17:20.726Z,13.25
2018-11-11T02:18:01.166Z,13.14
2018-11-11T02:18:41.547Z,13.17
2018-11-11T02:19:21.916Z,13.28
2018-11-11T02:20:02.359Z,13.27
2018-11-11T02:20:42.835Z,13.24
2018-11-11T02:21:23.304Z,13.22
2018-11-11T02:22:03.692Z,13.32
2018-11-11T02:22:44.134Z,13.28
2018-11-11T02:23:24.522Z,13.27
2018-11-11T02:24:04.954Z,13.29
2018-11-11T02:24:45.384Z,13.29
2018-11-11T02:25:25.827Z,13.28
2018-11-11T02:26:06.251Z,13.28
2018-11-11T02:26:46.631Z,13.32
2018-11-11T02:27:27.029Z,13.24
2018-11-11T02:28:07.565Z,13.28
2018-11-11T02:28:47.955Z,13.31
2018-11-11T02:29:28.410Z,13.21
2018-11-11T02:30:08.765Z,13.31
2018-11-11T02:30:49.175Z,13.27
2018-11-11T02:31:29.590Z,13.29
2018-11-11T02:32:10.006Z,13.32
2018-11-11T02:32:50.439Z,13.29
2018-11-11T02:33:30.790Z,13.28
2018-11-11T02:34:11.225Z,13.27
2018-11-11T02:34:51.654Z,13.22
2018-11-11T02:35:32.086Z,13.22
2018-11-11T02:36:12.403Z,13.22
2018-11-11T02:36:52.917Z,13.17
2018-11-11T02:37:33.488Z,13.28
2018-11-11T02:38:13.736Z,13.27
2018-11-11T02:38:54.169Z,13.27
2018-11-11T02:39:34.624Z,13.25
2018-11-11T02:40:15.017Z,13.22
2018-11-11T02:40:55.436Z,13.19
2018-11-11T02:41:35.942Z,13.27
2018-11-11T02:42:16.361Z,13.17
2018-11-11T02:42:56.713Z,13.24
2018-11-11T02:43:37.305Z,13.21
2018-11-11T02:44:17.615Z,13.27
2018-11-11T02:44:58.033Z,13.24
2018-11-11T02:45:38.492Z,13.24
2018-11-11T02:46:18.991Z,13.27
2018-11-11T02:46:59.581Z,13.21
2018-11-11T02:47:40.046Z,13.21
2018-11-11T02:48:20.339Z,13.25
2018-11-11T02:49:00.755Z,13.38
2018-11-11T02:49:41.233Z,13.38
2018-11-11T02:50:21.617Z,13.38
2018-11-11T02:51:02.000Z,13.38
2018-11-11T02:51:42.446Z,13.38
2018-11-11T02:52:23.184Z,13.38
2018-11-11T02:53:03.647Z,13.38
2018-11-11T02:53:44.051Z,13.32
2018-11-11T02:54:24.508Z,13.31
2018-11-11T02:55:04.896Z,13.31
2018-11-11T02:55:45.359Z,13.29
2018-11-11T02:56:25.691Z,13.36
2018-11-11T02:57:06.189Z,13.31
2018-11-11T02:57:46.588Z,13.43
2018-11-11T02:58:27.340Z,13.35
2018-11-11T02:59:07.609Z,13.39
2018-11-11T02:59:48.091Z,13.36
2018-11-11T03:00:28.464Z,13.32
2018-11-11T03:01:09.053Z,13.32
2018-11-11T03:01:49.406Z,13.22
2018-11-11T03:02:29.887Z,13.32
2018-11-11T03:03:10.327Z,13.28
2018-11-11T03:03:50.807Z,13.27
2018-11-11T03:04:31.418Z,13.24
2018-11-11T03:05:11.585Z,13.22
2018-11-11T03:05:52.018Z,13.22
2018-11-11T03:06:32.483Z,13.27
2018-11-11T03:07:13.079Z,13.16
2018-11-11T03:07:53.426Z,13.21
2018-11-11T03:08:33.857Z,13.24
2018-11-11T03:09:14.233Z,13.22
2018-11-11T03:09:54.656Z,13.24
2018-11-11T03:10:35.115Z,13.24
2018-11-11T03:11:15.502Z,13.27
2018-11-11T03:11:55.928Z,13.22
2018-11-11T03:12:36.225Z,13.25
2018-11-11T03:13:16.639Z,13.24
2018-11-11T03:13:57.110Z,13.22
2018-11-11T03:14:37.601Z,13.21
2018-11-11T03:15:17.909Z,13.25
2018-11-11T03:15:58.381Z,13.21
2018-11-11T03:16:38.761Z,13.28
2018-11-11T03:17:19.293Z,13.25
2018-11-11T03:17:59.639Z,13.24
2018-11-11T03:18:40.031Z,13.16
2018-11-11T03:19:20.467Z,13.24
2018-11-11T03:20:00.928Z,13.38
2018-11-11T03:21:53.472Z,13.47
2018-11-11T03:22:34.079Z,13.38
2018-11-11T03:23:14.505Z,13.43
2018-11-11T03:23:54.945Z,13.39
2018-11-11T03:24:35.294Z,13.36
2018-11-11T03:25:15.732Z,13.35
2018-11-11T03:25:56.137Z,13.32
2018-11-11T03:26:36.538Z,13.35
2018-11-11T03:27:16.911Z,13.36
2018-11-11T03:27:57.319Z,13.31
2018-11-11T03:28:37.781Z,13.36
2018-11-11T03:30:25.259Z,13.44
2018-11-11T03:31:06.164Z,13.43
2018-11-11T03:31:46.578Z,13.46
2018-11-11T03:32:26.916Z,13.47
2018-11-11T03:33:07.353Z,13.46
2018-11-11T03:33:47.710Z,13.48
2018-11-11T03:34:28.079Z,13.32
2018-11-11T03:35:08.608Z,13.35
2018-11-11T03:35:48.973Z,13.35
2018-11-11T03:36:29.492Z,13.29
2018-11-11T03:37:09.745Z,13.28
2018-11-11T03:37:50.155Z,13.35
2018-11-11T03:38:30.709Z,13.38
2018-11-11T03:39:11.026Z,13.32
2018-11-11T03:39:51.556Z,13.38
2018-11-11T03:40:31.909Z,13.39
2018-11-11T03:41:12.408Z,13.39
2018-11-11T03:41:52.756Z,13.29
2018-11-11T03:42:33.141Z,13.41
2018-11-11T03:43:13.622Z,13.28
2018-11-11T03:43:53.968Z,13.21
2018-11-11T03:44:34.443Z,13.32
2018-11-11T03:45:14.819Z,13.25
2018-11-11T03:45:55.159Z,13.27
2018-11-11T03:46:35.583Z,13.24
2018-11-11T03:47:16.072Z,13.24
2018-11-11T03:47:56.456Z,13.27
2018-11-11T03:48:36.876Z,13.19
2018-11-11T03:49:17.355Z,13.25
2018-11-11T03:49:57.745Z,13.22
2018-11-11T03:50:38.057Z,13.35
2018-11-11T03:51:18.565Z,13.31
2018-11-11T03:51:58.922Z,13.38
2018-11-11T03:52:39.373Z,13.31
2018-11-11T03:53:19.702Z,13.43
2018-11-11T03:54:00.107Z,13.35
2018-11-11T03:54:40.564Z,13.29
2018-11-11T03:55:20.972Z,13.27
2018-11-11T03:56:01.455Z,13.22
2018-11-11T03:56:41.808Z,13.21
2018-11-11T03:57:22.258Z,13.17
2018-11-11T03:58:02.665Z,13.22
2018-11-11T03:58:43.108Z,13.17
2018-11-11T03:59:23.429Z,13.27
2018-11-11T04:00:03.897Z,13.17
2018-11-11T04:00:44.375Z,13.16
2018-11-11T04:01:24.771Z,13.17
2018-11-11T04:02:05.169Z,13.13
2018-11-11T04:02:45.590Z,13.16
2018-11-11T04:03:26.007Z,13.09
2018-11-11T04:04:06.502Z,13.06
2018-11-11T04:04:46.977Z,13.19
2018-11-11T04:05:27.344Z,13.16
2018-11-11T04:06:07.681Z,13.12
2018-11-11T04:06:48.103Z,13.16
2018-11-11T04:07:28.532Z,13.12
2018-11-11T04:08:08.951Z,13.16
2018-11-11T04:08:49.401Z,13.14
2018-11-11T04:09:29.855Z,13.14
2018-11-11T04:10:10.268Z,13.19
2018-11-11T04:10:50.716Z,13.14
2018-11-11T04:11:31.197Z,13.07
2018-11-11T04:12:11.549Z,13.03
2018-11-11T04:12:51.949Z,13.03
2018-11-11T04:13:32.364Z,13.07
2018-11-11T04:14:12.792Z,13.1
2018-11-11T04:14:53.257Z,13.03
2018-11-11T04:15:33.705Z,13.01
2018-11-11T04:16:14.187Z,12.99
2018-11-11T04:16:54.552Z,12.98
2018-11-11T04:17:35.060Z,12.98
2018-11-11T04:18:15.396Z,12.95
2018-11-11T04:18:55.938Z,12.96
2018-11-11T04:19:36.346Z,12.92
2018-11-11T04:21:23.805Z,12.87
2018-11-11T04:22:04.242Z,12.94
2018-11-11T04:22:44.674Z,12.84
2018-11-11T04:23:25.203Z,12.8
2018-11-11T04:24:05.672Z,12.85
2018-11-11T04:24:45.988Z,12.85
2018-11-11T04:25:26.414Z,12.77
2018-11-11T04:26:06.840Z,12.77
2018-11-11T04:26:47.291Z,12.79
2018-11-11T04:27:27.683Z,12.77
2018-11-11T05:07:53.693Z,12.43
2018-11-11T05:08:32.170Z,12.44
2018-11-11T05:09:12.821Z,12.37
2018-11-11T05:09:53.234Z,12.46
2018-11-11T05:10:33.921Z,12.49
2018-11-11T05:11:14.264Z,12.48
2018-11-11T05:11:54.794Z,12.52
2018-11-11T05:12:35.287Z,12.52
2018-11-11T05:13:15.724Z,12.4
2018-11-11T05:13:56.134Z,12.55
2018-11-11T05:14:36.578Z,12.56
2018-11-11T05:15:17.072Z,12.52
2018-11-11T05:15:57.409Z,12.54
2018-11-11T05:16:37.986Z,12.55
2018-11-11T05:17:18.333Z,12.56
2018-11-11T05:17:58.737Z,12.56
2018-11-11T05:18:39.139Z,12.58
2018-11-11T05:19:19.639Z,12.56
2018-11-11T05:20:00.023Z,12.59
2018-11-11T05:20:40.435Z,12.59
2018-11-11T05:21:20.904Z,12.58
2018-11-11T05:22:02.006Z,12.7
2018-11-11T05:22:42.331Z,12.76
2018-11-11T05:23:22.682Z,12.76
2018-11-11T05:24:03.141Z,12.79
2018-11-11T05:24:43.528Z,12.81
2018-11-11T05:25:24.009Z,12.76
2018-11-11T05:26:04.390Z,12.77
2018-11-11T05:26:44.895Z,12.79
2018-11-11T05:27:25.273Z,12.91
2018-11-11T05:28:05.609Z,12.92
2018-11-11T05:28:46.046Z,12.81
2018-11-11T05:29:26.800Z,12.94
2018-11-11T05:30:07.235Z,12.92
2018-11-11T05:30:47.658Z,12.95
2018-11-11T05:31:28.088Z,12.95
2018-11-11T05:32:08.471Z,13.03
2018-11-11T05:32:48.888Z,12.98
2018-11-11T05:33:29.245Z,12.99
2018-11-11T05:34:09.800Z,12.96
2018-11-11T05:34:50.166Z,12.96
2018-11-11T05:35:30.531Z,12.96
2018-11-11T05:36:11.166Z,12.99
2018-11-11T05:36:51.581Z,12.96
2018-11-11T05:37:31.965Z,12.95
2018-11-11T05:38:12.442Z,12.95
2018-11-11T05:38:52.876Z,12.95
2018-11-11T05:39:33.260Z,12.99
2018-11-11T05:40:13.766Z,12.98
2018-11-11T05:40:54.202Z,12.94
2018-11-11T05:41:34.661Z,12.94
2018-11-11T05:42:14.995Z,12.94
2018-11-11T05:42:55.383Z,13.04
2018-11-11T05:43:35.777Z,12.98
2018-11-11T05:44:16.301Z,13.06
2018-11-11T05:44:56.627Z,12.95
2018-11-11T05:45:37.172Z,13.01
2018-11-11T05:46:17.657Z,12.94
2018-11-11T05:46:58.048Z,13.03
2018-11-11T05:47:38.550Z,13.03
2018-11-11T05:48:18.942Z,13.13
2018-11-11T05:48:59.560Z,13.07
2018-11-11T05:49:40.024Z,13.04
2018-11-11T05:50:20.415Z,13.04
2018-11-11T05:51:00.753Z,13.07
2018-11-11T05:51:41.288Z,13.04
2018-11-11T05:52:21.629Z,13.09
2018-11-11T05:53:02.065Z,13.12
2018-11-11T05:53:42.458Z,13.12
2018-11-11T05:54:22.865Z,13.13
2018-11-11T05:55:03.333Z,13.1
2018-11-11T05:55:43.695Z,13.07
2018-11-11T05:56:24.214Z,13.07
2018-11-11T05:57:04.699Z,13.1
2018-11-11T05:57:45.001Z,13.07
2018-11-11T05:58:25.473Z,13.06
2018-11-11T05:59:05.921Z,13.09
2018-11-11T05:59:46.306Z,12.96
2018-11-11T06:00:26.842Z,13.03
2018-11-11T06:01:07.343Z,13.04
2018-11-11T06:02:59.623Z,13.06
2018-11-11T06:03:40.954Z,13.07
2018-11-11T06:04:21.197Z,13.09
2018-11-11T06:05:01.570Z,13.1
2018-11-11T06:05:41.941Z,13.07
2018-11-11T06:06:22.381Z,13.1
2018-11-11T06:07:02.816Z,13.09
2018-11-11T06:07:43.339Z,13.04
2018-11-11T06:08:23.876Z,13.17
2018-11-11T06:09:04.289Z,13.07
2018-11-11T06:11:19.791Z,13.21
2018-11-11T06:12:00.266Z,13.14
2018-11-11T06:12:40.682Z,13.14
2018-11-11T06:13:21.036Z,13.24
2018-11-11T06:14:01.441Z,13.22
2018-11-11T06:14:41.860Z,13.21
2018-11-11T06:15:22.334Z,13.22
2018-11-11T06:16:02.848Z,13.24
2018-11-11T06:16:43.233Z,13.25
2018-11-11T06:17:23.642Z,13.28
2018-11-11T06:18:04.037Z,13.21
2018-11-11T06:18:44.433Z,13.27
2018-11-11T06:19:24.811Z,13.25
2018-11-11T06:20:05.227Z,13.24
2018-11-11T06:22:17.931Z,13.22
2018-11-11T06:22:58.363Z,13.19
2018-11-11T06:23:38.799Z,13.16
2018-11-11T06:24:19.204Z,13.22
2018-11-11T06:24:59.612Z,13.16
2018-11-11T06:25:40.028Z,13.13
2018-11-11T06:26:20.437Z,13.19
2018-11-11T06:27:00.799Z,13.13
2018-11-11T06:27:41.327Z,13.21
2018-11-11T06:28:21.653Z,13.16
2018-11-11T06:29:02.076Z,13.16
2018-11-11T06:29:42.433Z,13.17
2018-11-11T06:30:22.904Z,13.19
2018-11-11T06:31:03.309Z,13.13
2018-11-11T06:31:43.696Z,13.16
2018-11-11T06:32:24.076Z,13.19
2018-11-11T06:33:04.462Z,13.16
2018-11-11T06:33:44.893Z,13.17
2018-11-11T06:34:25.310Z,13.19
2018-11-11T06:35:05.755Z,13.16
2018-11-11T06:35:46.135Z,13.16
2018-11-11T06:36:26.557Z,13.21
2018-11-11T06:37:07.035Z,13.21
2018-11-11T06:37:47.422Z,13.24
2018-11-11T06:38:27.820Z,13.17
2018-11-11T06:39:08.219Z,13.25
2018-11-11T06:39:48.661Z,13.25
2018-11-11T06:40:29.065Z,13.21
2018-11-11T06:41:09.485Z,13.13
2018-11-11T06:41:49.863Z,13.17
2018-11-11T06:42:30.335Z,13.06
2018-11-11T06:43:10.710Z,13.09
2018-11-11T06:43:51.058Z,13.03
2018-11-11T06:44:31.542Z,13.01
2018-11-11T06:45:11.892Z,13.03
2018-11-11T06:45:52.344Z,13.06
2018-11-11T06:46:32.756Z,13.03
2018-11-11T06:47:13.155Z,13.04
2018-11-11T06:47:53.576Z,13.04
2018-11-11T06:48:34.002Z,12.98
2018-11-11T06:49:14.368Z,12.98
2018-11-11T06:49:54.791Z,12.96
2018-11-11T06:50:35.151Z,12.95
2018-11-11T06:52:47.738Z,12.94
2018-11-11T06:53:28.489Z,12.96
2018-11-11T06:54:08.893Z,12.96
2018-11-11T06:54:49.307Z,12.98
2018-11-11T06:55:29.745Z,12.95
2018-11-11T06:56:10.137Z,12.95
2018-11-11T06:56:50.528Z,12.95
2018-11-11T06:57:30.956Z,12.95
2018-11-11T06:58:11.491Z,12.94
2018-11-11T06:58:52.121Z,12.95
2018-11-11T06:59:32.208Z,13.06
2018-11-11T07:00:12.763Z,13.03
2018-11-11T07:00:53.165Z,13.01
2018-11-11T07:01:33.657Z,12.99
2018-11-11T07:02:14.080Z,13.06
2018-11-11T07:02:54.468Z,12.99
2018-11-11T07:03:34.860Z,12.98
2018-11-11T07:04:15.300Z,12.98
2018-11-11T07:04:55.746Z,12.99
2018-11-11T07:05:36.303Z,13.03
2018-11-11T07:06:16.711Z,13.06
2018-11-11T07:06:57.412Z,13.04
2018-11-11T07:07:37.941Z,13.1
2018-11-11T07:08:18.163Z,13.03
2018-11-11T07:10:12.777Z,13.03
2018-11-11T07:10:55.840Z,12.99
2018-11-11T07:11:36.138Z,12.96
2018-11-11T07:12:16.509Z,13.01
2018-11-11T07:12:56.900Z,12.94
2018-11-11T07:13:37.311Z,12.92
2018-11-11T07:14:17.798Z,12.99
2018-11-11T07:14:58.326Z,12.99
2018-11-11T07:15:38.812Z,12.96
2018-11-11T07:16:19.252Z,13.06
2018-11-11T07:16:59.640Z,13.06
2018-11-11T07:17:40.229Z,13.03
2018-11-11T07:18:20.597Z,13.1
2018-11-11T07:19:01.133Z,13.12
2018-11-11T07:19:41.508Z,13.14
2018-11-11T07:20:21.916Z,13.17
2018-11-11T07:21:03.287Z,13.17
2018-11-11T07:21:43.091Z,13.17
2018-11-11T07:22:23.516Z,13.14
2018-11-11T07:23:04.071Z,13.22
2018-11-11T07:23:44.616Z,13.25
2018-11-11T07:24:24.864Z,13.27
2018-11-11T07:25:06.155Z,13.22
2018-11-11T07:25:46.448Z,13.25
2018-11-11T07:26:27.397Z,13.21
2018-11-11T07:27:07.777Z,13.17
2018-11-11T07:27:48.163Z,13.24
2018-11-11T07:28:28.551Z,13.28
2018-11-11T07:29:08.973Z,13.21
2018-11-11T07:29:49.418Z,13.31
2018-11-11T07:30:29.897Z,13.22
2018-11-11T07:31:10.502Z,13.24
2018-11-11T07:31:50.946Z,13.25
2018-11-11T07:32:31.401Z,13.31
2018-11-11T07:33:11.843Z,13.32
2018-11-11T07:33:52.303Z,13.28
2018-11-11T07:34:32.730Z,13.38
2018-11-11T07:35:13.381Z,13.29
2018-11-11T07:35:53.613Z,13.28
2018-11-11T07:36:34.110Z,13.38
2018-11-11T07:37:14.813Z,13.29
2018-11-11T07:37:55.234Z,13.38
2018-11-11T07:38:35.602Z,13.31
2018-11-11T07:39:15.961Z,13.38
2018-11-11T07:39:56.700Z,13.36
2018-11-11T07:40:37.061Z,13.36
2018-11-11T07:41:17.427Z,13.36
2018-11-11T07:41:57.898Z,13.47
2018-11-11T07:42:38.358Z,13.41
2018-11-11T07:43:18.729Z,13.46
2018-11-11T07:43:59.230Z,13.44
2018-11-11T07:44:40.052Z,13.43
2018-11-11T07:45:20.029Z,13.44
2018-11-11T07:46:00.405Z,13.39
2018-11-11T07:46:40.813Z,13.44
2018-11-11T07:47:21.250Z,13.46
2018-11-11T07:48:01.798Z,13.48
2018-11-11T07:48:42.285Z,13.51
2018-11-11T07:49:22.652Z,13.48
2018-11-11T07:50:03.509Z,13.57
2018-11-11T07:50:43.796Z,13.5
2018-11-11T07:51:24.027Z,13.57
2018-11-11T07:52:04.523Z,13.59
2018-11-11T07:52:45.093Z,13.55
2018-11-11T07:53:25.375Z,13.62
2018-11-11T07:54:05.866Z,13.65
2018-11-11T07:54:46.278Z,13.61
2018-11-11T07:55:26.765Z,13.57
2018-11-11T07:56:07.098Z,13.63
2018-11-11T07:56:47.543Z,13.54
2018-11-11T07:57:27.915Z,13.65
2018-11-11T07:58:08.469Z,13.65
2018-11-11T07:58:48.879Z,13.59
2018-11-11T07:59:29.368Z,13.65
2018-11-11T08:00:09.951Z,13.71
2018-11-11T08:00:50.347Z,13.72
2018-11-11T08:01:30.772Z,13.68
2018-11-11T08:02:11.307Z,13.71
2018-11-11T08:02:51.734Z,13.69
2018-11-11T08:03:32.446Z,13.65
2018-11-11T08:05:21.292Z,13.65
2018-11-11T08:06:01.453Z,13.62
2018-11-11T08:06:43.226Z,13.71
2018-11-11T08:07:23.728Z,13.59
2018-11-11T08:08:04.200Z,13.68
2018-11-11T08:08:44.589Z,13.59
2018-11-11T08:09:25.013Z,13.68
2018-11-11T08:10:05.400Z,13.71
2018-11-11T08:10:45.866Z,13.61
2018-11-11T08:11:26.196Z,13.55
2018-11-11T08:12:07.445Z,13.66
2018-11-11T08:12:47.846Z,13.65
2018-11-11T08:13:28.261Z,13.66
2018-11-11T08:14:08.788Z,13.63
2018-11-11T08:14:49.142Z,13.61
2018-11-11T08:15:29.548Z,13.72
2018-11-11T08:16:10.017Z,13.62
2018-11-11T08:16:50.461Z,13.66
2018-11-11T08:17:30.765Z,13.71
2018-11-11T08:18:11.416Z,13.84
2018-11-11T08:18:51.849Z,13.76
2018-11-11T08:19:32.301Z,13.88
2018-11-11T08:20:12.663Z,14.09
2018-11-11T08:20:53.186Z,14.16
2018-11-11T08:23:09.449Z,14.59
2018-11-11T08:23:48.462Z,14.75
2018-11-11T08:24:28.875Z,14.85
2018-11-11T08:25:09.269Z,14.93
2018-11-11T08:25:49.653Z,15.16
2018-11-11T08:26:30.135Z,15.34
2018-11-11T08:27:10.481Z,15.46
2018-11-11T08:27:51.125Z,15.48
2018-11-11T08:28:31.530Z,15.6
2018-11-11T08:29:12.245Z,15.7
2018-11-11T08:29:52.782Z,15.68
2018-11-11T08:30:33.251Z,15.86
2018-11-11T08:31:13.606Z,15.81
2018-11-11T08:31:53.998Z,15.85
2018-11-11T08:32:34.481Z,15.89
2018-11-11T08:33:14.883Z,15.91
2018-11-11T08:33:55.500Z,15.95
2018-11-11T08:34:36.264Z,16.01
2018-11-11T08:35:16.378Z,16.07
2018-11-11T08:35:56.800Z,16.08
2018-11-11T08:36:37.289Z,16.22
2018-11-11T08:37:17.684Z,16.32
2018-11-11T08:37:58.136Z,16.26
2018-11-11T08:38:38.864Z,16.33
2018-11-11T08:39:19.266Z,16.4
2018-11-11T08:39:59.759Z,16.55
2018-11-11T08:40:40.183Z,16.36
2018-11-11T08:41:20.466Z,16.5
2018-11-11T08:42:01.064Z,16.54
2018-11-11T08:42:41.869Z,16.54
2018-11-11T08:43:22.183Z,16.59
2018-11-11T08:44:02.595Z,16.51
2018-11-11T08:44:43.119Z,16.6
2018-11-11T08:45:23.847Z,16.69
2018-11-11T08:46:04.023Z,16.85
2018-11-11T08:46:44.488Z,17.03
2018-11-11T08:47:25.755Z,17.1
2018-11-11T08:48:06.313Z,17.1
2018-11-11T08:48:46.654Z,17.2
2018-11-11T08:49:27.116Z,17.14
2018-11-11T08:50:07.616Z,17.21
2018-11-11T08:50:48.002Z,17.38
2018-11-11T08:51:28.410Z,17.39
2018-11-11T08:52:08.939Z,17.38
2018-11-11T08:52:49.588Z,17.39
2018-11-11T08:53:29.682Z,17.39
2018-11-11T08:54:10.227Z,17.35
2018-11-11T08:54:50.710Z,17.35
2018-11-11T08:57:04.566Z,17.4
2018-11-11T08:57:44.748Z,17.38
2018-11-11T08:58:25.368Z,17.3
2018-11-11T08:59:05.690Z,17.3
2018-11-11T08:59:46.248Z,17.25
2018-11-11T09:00:26.602Z,17.25
2018-11-11T09:01:07.102Z,17.25
2018-11-11T09:01:47.750Z,17.28
2018-11-11T09:02:28.084Z,17.32
2018-11-11T09:03:08.876Z,17.21
2018-11-11T09:03:50.358Z,17.39
2018-11-11T09:04:30.741Z,17.47
2018-11-11T09:05:11.137Z,17.77
2018-11-11T09:05:51.644Z,17.74
2018-11-11T09:06:32.473Z,17.84
2018-11-11T09:07:12.716Z,17.95
2018-11-11T09:07:53.183Z,18.23
2018-11-11T09:08:33.590Z,18.32
2018-11-11T09:09:14.156Z,18.46
2018-11-11T09:09:54.614Z,18.57
2018-11-11T09:10:35.119Z,18.5
2018-11-11T09:11:15.460Z,18.26
2018-11-11T09:11:55.927Z,18.31
2018-11-11T09:12:37.268Z,18.21
2018-11-11T09:13:17.634Z,18.34
2018-11-11T09:13:58.381Z,18.31
2018-11-11T09:14:38.900Z,18.2
2018-11-11T09:15:19.677Z,18.02
2018-11-11T09:15:59.828Z,18.09
2018-11-11T09:16:40.246Z,18.07
2018-11-11T09:17:20.761Z,18.19
2018-11-11T09:18:01.109Z,18.19
2018-11-11T09:18:41.653Z,18.1
2018-11-11T09:19:22.275Z,18.14
2018-11-11T09:20:02.672Z,18.16
2018-11-11T09:20:43.326Z,18.19
2018-11-11T09:21:23.782Z,18.34
2018-11-11T09:22:04.415Z,18.44
2018-11-11T09:22:44.974Z,18.49
2018-11-11T09:23:25.227Z,18.49
2018-11-11T09:24:05.925Z,18.71
2018-11-11T09:24:46.512Z,18.74
2018-11-11T09:25:26.945Z,18.83
2018-11-11T09:26:07.333Z,18.93
2018-11-11T09:26:47.957Z,19.01
2018-11-11T09:27:28.362Z,19.09
2018-11-11T09:28:08.900Z,19.09
2018-11-11T09:30:09.336Z,18.9
2018-11-11T09:30:51.505Z,18.87
2018-11-11T09:31:31.960Z,18.62
2018-11-11T09:32:12.768Z,18.46
2018-11-11T09:32:53.091Z,18.44
2018-11-11T09:33:33.582Z,18.42
2018-11-11T09:34:14.196Z,18.35
2018-11-11T09:34:54.680Z,18.34
2018-11-11T09:35:35.705Z,18.29
2018-11-11T09:36:16.012Z,18.19
2018-11-11T09:36:56.643Z,18.31
2018-11-11T09:37:37.414Z,18.23
2018-11-11T09:38:17.793Z,17.92
2018-11-11T09:38:58.295Z,17.81
2018-11-11T09:39:38.724Z,17.65
2018-11-11T09:40:19.448Z,17.6
2018-11-11T09:40:59.843Z,17.47